createdAt,value
2023-01-25T00:00:31.197Z,29.60
2023-01-25T00:05:34.077Z,28.58
2023-01-25T00:10:39.256Z,32.95
2023-01-25T00:15:41.981Z,28.30
2023-01-25T00:20:44.736Z,31.40
2023-01-25T00:25:48.980Z,28.17
2023-01-25T00:30:52.062Z,30.33
2023-01-25T00:35:57.924Z,31.17
2023-01-25T00:41:02.125Z,30.00
2023-01-25T00:46:05.085Z,33.88
2023-01-25T00:51:08.121Z,28.83
2023-01-25T00:56:12.285Z,33.40
2023-01-25T01:01:16.238Z,30.92
2023-01-25T01:06:19.097Z,29.83
2023-01-25T01:11:23.276Z,32.70
2023-01-25T01:16:27.628Z,28.63
2023-01-25T01:21:30.345Z,25.73
2023-01-25T01:26:34.635Z,28.27
2023-01-25T01:31:37.761Z,29.25
2023-01-25T01:36:57.093Z,29.15
2023-01-25T01:42:01.397Z,25.23
2023-01-25T01:47:04.622Z,24.40
2023-01-25T01:52:14.193Z,23.08
2023-01-25T01:57:22.728Z,22.73
2023-01-25T02:02:27.561Z,24.63
2023-01-25T02:07:35.116Z,23.88
2023-01-25T02:12:40.273Z,20.40
2023-01-25T02:17:44.006Z,23.10
2023-01-25T02:22:55.636Z,23.65
2023-01-25T02:28:04.865Z,24.77
2023-01-25T02:33:07.658Z,21.88
2023-01-25T02:38:14.189Z,24.52
2023-01-25T02:43:19.424Z,24.23
2023-01-25T02:48:22.297Z,26.20
2023-01-25T02:53:27.487Z,26.52
2023-01-25T02:58:31.661Z,27.25
2023-01-25T03:03:35.495Z,26.35
2023-01-25T03:08:38.554Z,26.13
2023-01-25T03:13:42.922Z,27.38
2023-01-25T03:18:46.105Z,22.67
2023-01-25T03:23:55.289Z,25.95
2023-01-25T03:29:01.348Z,27.05
2023-01-25T03:34:04.468Z,29.08
2023-01-25T03:39:11.626Z,28.02
2023-01-25T03:44:19.056Z,27.05
2023-01-25T03:49:23.180Z,27.65
2023-01-25T03:54:27.327Z,31.27
2023-01-25T03:59:31.629Z,29.10
2023-01-25T04:04:35.132Z,29.95
2023-01-25T04:09:38.672Z,31.48
2023-01-25T04:14:45.130Z,27.23
2023-01-25T04:19:55.202Z,24.40
2023-01-25T04:25:02.715Z,21.50
2023-01-25T04:30:09.359Z,25.73
2023-01-25T04:35:13.346Z,22.98
2023-01-25T04:40:17.133Z,22.42
2023-01-25T04:45:23.421Z,19.70
2023-01-25T04:50:26.643Z,23.17
2023-01-25T04:55:32.174Z,25.75
2023-01-25T05:00:37.987Z,27.73
2023-01-25T05:05:46.277Z,25.77
2023-01-25T05:10:50.852Z,25.00
2023-01-25T05:16:13.402Z,25.17
2023-01-25T05:21:30.433Z,33.72
2023-01-25T05:26:50.891Z,25.02
2023-01-25T05:31:55.589Z,28.02
2023-01-25T05:36:58.867Z,25.80
2023-01-25T05:42:02.124Z,27.55
2023-01-25T05:47:06.495Z,29.48
2023-01-25T05:52:13.689Z,27.58
2023-01-25T05:57:17.530Z,25.93
2023-01-25T06:02:22.456Z,25.55
2023-01-25T06:07:25.616Z,29.58
2023-01-25T06:12:30.807Z,22.80
2023-01-25T06:17:36.493Z,26.58
2023-01-25T06:23:02.920Z,25.77
2023-01-25T06:28:06.450Z,23.95
2023-01-25T06:33:10.634Z,25.17
2023-01-25T06:38:13.517Z,25.75
2023-01-25T06:43:16.385Z,25.50
2023-01-25T06:48:20.536Z,26.75
2023-01-25T06:53:23.472Z,24.35
2023-01-25T06:58:27.017Z,27.52
2023-01-25T07:03:31.665Z,26.27
2023-01-25T07:08:35.672Z,32.90
2023-01-25T07:13:38.499Z,26.50
2023-01-25T07:18:43.174Z,24.27
2023-01-25T07:23:46.351Z,28.60
2023-01-25T07:28:50.138Z,27.92
2023-01-25T07:33:56.002Z,28.52
2023-01-25T07:39:00.215Z,29.63
2023-01-25T07:44:03.081Z,28.50
2023-01-25T07:49:21.231Z,32.25
2023-01-25T07:54:24.018Z,33.35
2023-01-25T07:59:27.320Z,33.00
2023-01-25T08:04:31.651Z,29.38
2023-01-25T08:09:34.440Z,32.65
2023-01-25T08:14:38.368Z,32.15
2023-01-25T08:19:42.437Z,30.88
2023-01-25T08:24:45.222Z,33.42
2023-01-25T08:29:48.024Z,28.13
2023-01-25T08:34:52.100Z,34.55
2023-01-25T08:39:57.086Z,31.52
2023-01-25T08:44:59.833Z,29.38
2023-01-25T08:50:04.677Z,28.73
2023-01-25T08:55:08.418Z,30.13
2023-01-25T09:00:13.494Z,32.85
2023-01-25T09:05:17.741Z,31.73
2023-01-25T09:10:20.992Z,43.20
2023-01-25T09:15:23.843Z,33.78
2023-01-25T09:20:28.723Z,39.65
2023-01-25T09:25:32.208Z,38.22
2023-01-25T09:30:46.251Z,33.95
2023-01-25T09:36:00.671Z,32.55
2023-01-25T09:41:25.173Z,40.78
2023-01-25T09:46:40.807Z,86.18
2023-01-25T09:52:01.663Z,40.53
2023-01-25T09:57:05.257Z,44.67
2023-01-25T10:02:27.086Z,46.83
2023-01-25T10:07:39.905Z,47.55
2023-01-25T10:12:42.774Z,46.90
2023-01-25T10:17:46.120Z,51.42
2023-01-25T10:22:53.428Z,50.17
2023-01-25T10:28:10.037Z,50.95
2023-01-25T10:33:18.671Z,51.45
2023-01-25T10:38:29.251Z,46.75
2023-01-25T10:43:32.159Z,44.80
2023-01-25T10:48:37.445Z,50.67
2023-01-25T10:53:43.357Z,39.83
2023-01-25T10:58:48.857Z,46.95
2023-01-25T11:03:51.584Z,48.30
2023-01-25T11:08:55.681Z,48.97
2023-01-25T11:13:58.926Z,43.08
2023-01-25T11:19:03.687Z,46.90
2023-01-25T11:24:18.978Z,45.42
2023-01-25T11:29:24.334Z,50.70
2023-01-25T11:34:31.034Z,45.58
2023-01-25T11:39:47.769Z,45.20
2023-01-25T11:45:16.819Z,43.95
2023-01-25T11:55:30.208Z,39.75
2023-01-25T12:00:45.900Z,41.03
2023-01-25T12:06:01.647Z,39.40
2023-01-25T12:11:13.319Z,36.75
2023-01-25T12:16:31.036Z,38.45
2023-01-25T12:21:47.146Z,41.90
2023-01-25T12:27:01.509Z,38.90
2023-01-25T12:32:09.111Z,35.97
2023-01-25T12:37:18.383Z,39.83
2023-01-25T12:42:26.966Z,40.45
2023-01-25T12:47:36.189Z,44.50
2023-01-25T12:52:46.987Z,36.17
2023-01-25T12:58:00.110Z,34.80
2023-01-25T13:03:12.973Z,37.17
2023-01-25T13:08:31.680Z,41.05
2023-01-25T13:13:36.493Z,39.15
2023-01-25T13:18:42.444Z,40.38
2023-01-25T13:23:47.833Z,40.58
2023-01-25T13:28:53.012Z,39.95
2023-01-25T13:33:55.889Z,38.78
2023-01-25T13:38:58.607Z,42.25
2023-01-25T13:44:33.189Z,42.90
2023-01-25T13:49:44.427Z,38.38
2023-01-25T13:54:48.857Z,43.33
2023-01-25T14:00:10.109Z,39.90
2023-01-25T14:05:20.942Z,42.40
2023-01-25T14:10:27.740Z,46.78
2023-01-25T14:15:33.836Z,48.03
2023-01-25T14:20:36.602Z,51.83
2023-01-25T14:25:41.626Z,49.88
2023-01-25T14:30:51.047Z,50.20
2023-01-25T14:36:00.029Z,46.28
2023-01-25T14:41:13.563Z,52.50
2023-01-25T14:46:36.460Z,51.50
2023-01-25T14:51:44.498Z,49.55
2023-01-25T14:56:49.356Z,57.90
2023-01-25T15:01:55.556Z,54.88
2023-01-25T15:07:01.134Z,56.13
2023-01-25T15:12:29.170Z,57.30
2023-01-25T15:17:44.451Z,53.45
2023-01-25T15:22:47.198Z,52.38
2023-01-25T15:27:50.298Z,67.57
2023-01-25T15:32:54.674Z,55.53
2023-01-25T15:37:57.502Z,53.35
2023-01-25T15:43:00.235Z,50.03
2023-01-25T15:48:04.525Z,49.92
2023-01-25T15:53:07.421Z,49.20
2023-01-25T15:58:14.012Z,46.72
2023-01-25T16:03:21.357Z,50.90
2023-01-25T16:08:24.181Z,51.70
2023-01-25T16:13:26.980Z,59.15
2023-01-25T16:18:31.105Z,50.80
2023-01-25T16:23:34.151Z,55.95
2023-01-25T16:28:36.961Z,51.17
2023-01-25T16:33:41.498Z,49.22
2023-01-25T16:38:44.803Z,45.97
2023-01-25T16:43:49.703Z,47.22
2023-01-25T16:48:54.052Z,47.30
2023-01-25T16:53:58.996Z,45.92
2023-01-25T16:59:04.170Z,51.92
2023-01-25T17:04:09.043Z,45.10
2023-01-25T17:09:22.878Z,50.78
2023-01-25T17:14:27.078Z,53.95
2023-01-25T17:19:31.448Z,54.42
2023-01-25T17:24:35.836Z,59.30
2023-01-25T17:29:38.573Z,53.72
2023-01-25T17:34:42.756Z,53.17
2023-01-25T17:39:45.477Z,53.25
2023-01-25T17:44:48.203Z,59.78
2023-01-25T17:49:52.606Z,62.35
2023-01-25T17:54:55.394Z,64.03
2023-01-25T17:59:58.159Z,62.60
2023-01-25T18:05:02.314Z,67.65
2023-01-25T18:10:06.007Z,70.30
2023-01-25T18:15:09.835Z,63.67
2023-01-25T18:20:14.789Z,66.90
2023-01-25T18:25:31.872Z,71.07
2023-01-25T18:30:36.859Z,72.38
2023-01-25T18:35:43.205Z,73.70
2023-01-25T18:40:46.028Z,86.25
2023-01-25T18:45:56.224Z,86.28
2023-01-25T18:51:01.459Z,87.43
2023-01-25T18:56:07.273Z,75.00
2023-01-25T19:01:13.092Z,81.50
2023-01-25T19:06:18.627Z,81.38
2023-01-25T19:11:22.750Z,65.63
2023-01-25T19:16:25.673Z,69.18
2023-01-25T19:21:30.228Z,78.35
2023-01-25T19:26:33.091Z,74.47
2023-01-25T19:31:37.303Z,75.93
2023-01-25T19:36:45.838Z,74.82
2023-01-25T19:41:49.132Z,65.00
2023-01-25T19:46:52.064Z,78.15
2023-01-25T19:51:57.535Z,78.43
2023-01-25T19:57:00.711Z,74.57
2023-01-25T20:02:04.074Z,69.07
2023-01-25T20:07:08.285Z,74.68
2023-01-25T20:12:11.192Z,73.72
2023-01-25T20:17:14.408Z,71.68
2023-01-25T20:22:19.385Z,76.75
2023-01-25T20:27:22.221Z,72.80
2023-01-25T20:32:32.673Z,75.00
2023-01-25T20:37:37.889Z,70.80
2023-01-25T20:42:40.723Z,65.38
2023-01-25T20:47:48.159Z,70.53
2023-01-25T20:53:41.564Z,63.67
2023-01-25T20:58:53.359Z,65.53
2023-01-25T21:04:27.108Z,70.20
2023-01-25T21:09:38.153Z,77.38
2023-01-25T21:14:50.236Z,76.60
2023-01-25T21:31:33.159Z,86.93
2023-01-25T21:37:10.652Z,86.90
2023-01-25T21:42:23.841Z,88.82
2023-01-25T21:47:49.485Z,94.57
2023-01-25T21:52:55.032Z,86.90
2023-01-25T21:57:58.391Z,89.75
2023-01-25T22:03:02.567Z,91.82
2023-01-25T22:08:05.681Z,92.85
2023-01-25T22:13:08.467Z,78.82
2023-01-25T22:18:12.519Z,83.35
2023-01-25T22:23:15.335Z,80.55
2023-01-25T22:28:20.687Z,84.70
2023-01-25T22:33:24.884Z,88.72
2023-01-25T22:38:27.690Z,78.88
2023-01-25T22:43:30.443Z,79.55
2023-01-25T22:48:35.822Z,80.85
2023-01-25T22:53:38.529Z,84.75
2023-01-25T22:58:43.751Z,75.72
2023-01-25T23:03:48.936Z,84.60
2023-01-25T23:08:52.151Z,85.97
2023-01-25T23:14:12.477Z,89.32
2023-01-25T23:19:17.231Z,81.32
2023-01-25T23:24:20.161Z,81.57
2023-01-25T23:29:22.912Z,83.82
2023-01-25T23:34:27.308Z,75.07
2023-01-25T23:39:30.278Z,74.72
2023-01-25T23:44:33.042Z,74.55
2023-01-25T23:49:37.153Z,67.70
2023-01-25T23:54:39.889Z,67.97
2023-01-25T23:59:42.938Z,64.57
